sensor_id;sensor_type;location;lat;lon;timestamp;P1;durP1;ratioP1;P2;durP2;ratioP2
69730;SDS011;56996;48.138;11.538;2023-02-16T00:00:44;23.30;;;11.00;;
69730;SDS011;56996;48.138;11.538;2023-02-16T00:03:17;21.10;;;10.70;;
69730;SDS011;56996;48.138;11.538;2023-02-16T00:05:46;21.30;;;10.90;;
69730;SDS011;56996;48.138;11.538;2023-02-16T00:08:13;26.10;;;11.70;;
69730;SDS011;56996;48.138;11.538;2023-02-16T00:10:40;22.90;;;10.70;;
69730;SDS011;56996;48.138;11.538;2023-02-16T00:13:36;21.20;;;10.60;;
69730;SDS011;56996;48.138;11.538;2023-02-16T00:16:17;20.60;;;10.00;;
69730;SDS011;56996;48.138;11.538;2023-02-16T00:18:46;22.30;;;10.60;;
69730;SDS011;56996;48.138;11.538;2023-02-16T00:21:14;22.30;;;11.00;;
69730;SDS011;56996;48.138;11.538;2023-02-16T00:23:41;20.40;;;10.40;;
69730;SDS011;56996;48.138;11.538;2023-02-16T00:26:30;20.20;;;9.90;;
69730;SDS011;56996;48.138;11.538;2023-02-16T00:28:59;27.00;;;13.40;;
69730;SDS011;56996;48.138;11.538;2023-02-16T00:31:29;21.80;;;10.70;;
69730;SDS011;56996;48.138;11.538;2023-02-16T00:34:14;21.00;;;10.10;;
69730;SDS011;56996;48.138;11.538;2023-02-16T00:36:52;21.20;;;10.40;;
69730;SDS011;56996;48.138;11.538;2023-02-16T00:39:21;22.70;;;10.70;;
69730;SDS011;56996;48.138;11.538;2023-02-16T00:41:53;21.10;;;10.80;;
69730;SDS011;56996;48.138;11.538;2023-02-16T00:44:29;20.20;;;10.10;;
69730;SDS011;56996;48.138;11.538;2023-02-16T00:47:08;20.10;;;9.50;;
69730;SDS011;56996;48.138;11.538;2023-02-16T00:49:36;21.30;;;9.80;;
69730;SDS011;56996;48.138;11.538;2023-02-16T00:54:48;21.10;;;10.00;;
69730;SDS011;56996;48.138;11.538;2023-02-16T00:57:17;22.00;;;9.80;;
69730;SDS011;56996;48.138;11.538;2023-02-16T00:59:45;20.80;;;10.00;;
69730;SDS011;56996;48.138;11.538;2023-02-16T01:02:13;19.10;;;9.40;;
69730;SDS011;56996;48.138;11.538;2023-02-16T01:04:40;17.80;;;8.80;;
69730;SDS011;56996;48.138;11.538;2023-02-16T01:07:12;17.70;;;8.50;;
69730;SDS011;56996;48.138;11.538;2023-02-16T01:09:57;13.90;;;6.10;;
69730;SDS011;56996;48.138;11.538;2023-02-16T01:12:43;16.00;;;7.30;;
69730;SDS011;56996;48.138;11.538;2023-02-16T01:15:14;14.40;;;6.70;;
69730;SDS011;56996;48.138;11.538;2023-02-16T01:17:41;16.70;;;7.60;;
69730;SDS011;56996;48.138;11.538;2023-02-16T01:20:14;15.60;;;7.50;;
69730;SDS011;56996;48.138;11.538;2023-02-16T01:22:46;17.20;;;8.30;;
69730;SDS011;56996;48.138;11.538;2023-02-16T01:25:13;19.10;;;8.30;;
69730;SDS011;56996;48.138;11.538;2023-02-16T01:27:41;16.60;;;7.90;;
69730;SDS011;56996;48.138;11.538;2023-02-16T01:30:22;12.40;;;5.40;;
69730;SDS011;56996;48.138;11.538;2023-02-16T01:32:50;14.70;;;6.60;;
69730;SDS011;56996;48.138;11.538;2023-02-16T01:35:28;14.20;;;7.40;;
69730;SDS011;56996;48.138;11.538;2023-02-16T01:37:56;13.90;;;6.00;;
69730;SDS011;56996;48.138;11.538;2023-02-16T01:43:18;16.50;;;7.90;;
69730;SDS011;56996;48.138;11.538;2023-02-16T01:46:11;16.70;;;8.10;;
69730;SDS011;56996;48.138;11.538;2023-02-16T01:48:40;18.50;;;8.70;;
69730;SDS011;56996;48.138;11.538;2023-02-16T01:51:26;20.60;;;9.80;;
69730;SDS011;56996;48.138;11.538;2023-02-16T01:56:51;18.40;;;8.30;;
69730;SDS011;56996;48.138;11.538;2023-02-16T02:02:38;14.00;;;6.00;;
69730;SDS011;56996;48.138;11.538;2023-02-16T02:08:20;17.00;;;8.00;;
69730;SDS011;56996;48.138;11.538;2023-02-16T02:13:58;19.20;;;8.80;;
69730;SDS011;56996;48.138;11.538;2023-02-16T02:16:29;18.90;;;8.40;;
69730;SDS011;56996;48.138;11.538;2023-02-16T02:18:56;16.80;;;8.30;;
69730;SDS011;56996;48.138;11.538;2023-02-16T02:27:37;21.40;;;9.60;;
69730;SDS011;56996;48.138;11.538;2023-02-16T02:35:46;20.50;;;10.10;;
69730;SDS011;56996;48.138;11.538;2023-02-16T02:38:23;21.90;;;10.30;;
69730;SDS011;56996;48.138;11.538;2023-02-16T02:43:42;21.40;;;10.20;;
69730;SDS011;56996;48.138;11.538;2023-02-16T02:48:52;22.40;;;9.80;;
69730;SDS011;56996;48.138;11.538;2023-02-16T02:51:19;19.90;;;10.10;;
69730;SDS011;56996;48.138;11.538;2023-02-16T02:54:06;19.70;;;9.40;;
69730;SDS011;56996;48.138;11.538;2023-02-16T02:57:31;20.70;;;9.80;;
69730;SDS011;56996;48.138;11.538;2023-02-16T03:00:24;21.20;;;10.00;;
69730;SDS011;56996;48.138;11.538;2023-02-16T03:03:20;22.90;;;10.70;;
69730;SDS011;56996;48.138;11.538;2023-02-16T03:05:57;20.10;;;10.00;;
69730;SDS011;56996;48.138;11.538;2023-02-16T03:08:31;20.20;;;9.90;;
69730;SDS011;56996;48.138;11.538;2023-02-16T03:11:22;20.00;;;9.90;;
69730;SDS011;56996;48.138;11.538;2023-02-16T03:14:30;21.50;;;9.70;;
69730;SDS011;56996;48.138;11.538;2023-02-16T03:17:01;23.00;;;10.00;;
69730;SDS011;56996;48.138;11.538;2023-02-16T03:19:51;19.80;;;9.50;;
69730;SDS011;56996;48.138;11.538;2023-02-16T03:22:37;19.20;;;9.00;;
69730;SDS011;56996;48.138;11.538;2023-02-16T03:25:27;21.80;;;9.70;;
69730;SDS011;56996;48.138;11.538;2023-02-16T03:28:17;21.50;;;9.50;;
69730;SDS011;56996;48.138;11.538;2023-02-16T03:31:06;21.30;;;9.60;;
69730;SDS011;56996;48.138;11.538;2023-02-16T03:33:34;19.30;;;8.40;;
69730;SDS011;56996;48.138;11.538;2023-02-16T03:36:03;18.80;;;9.00;;
69730;SDS011;56996;48.138;11.538;2023-02-16T03:38:31;15.40;;;7.60;;
69730;SDS011;56996;48.138;11.538;2023-02-16T03:40:57;18.40;;;8.20;;
69730;SDS011;56996;48.138;11.538;2023-02-16T03:43:25;20.50;;;9.10;;
69730;SDS011;56996;48.138;11.538;2023-02-16T03:45:53;19.70;;;7.90;;
69730;SDS011;56996;48.138;11.538;2023-02-16T03:48:20;20.10;;;8.00;;
69730;SDS011;56996;48.138;11.538;2023-02-16T03:50:47;14.20;;;6.70;;
69730;SDS011;56996;48.138;11.538;2023-02-16T03:53:14;16.00;;;7.30;;
69730;SDS011;56996;48.138;11.538;2023-02-16T03:55:45;12.40;;;5.60;;
69730;SDS011;56996;48.138;11.538;2023-02-16T03:58:16;13.00;;;5.70;;
69730;SDS011;56996;48.138;11.538;2023-02-16T04:00:45;14.60;;;6.10;;
69730;SDS011;56996;48.138;11.538;2023-02-16T04:03:12;14.40;;;7.00;;
69730;SDS011;56996;48.138;11.538;2023-02-16T04:05:39;16.10;;;6.80;;
69730;SDS011;56996;48.138;11.538;2023-02-16T04:08:07;13.10;;;6.00;;
69730;SDS011;56996;48.138;11.538;2023-02-16T04:10:35;17.00;;;7.70;;
69730;SDS011;56996;48.138;11.538;2023-02-16T04:13:03;16.60;;;7.40;;
69730;SDS011;56996;48.138;11.538;2023-02-16T04:15:31;18.50;;;8.20;;
69730;SDS011;56996;48.138;11.538;2023-02-16T04:17:58;17.10;;;7.90;;
69730;SDS011;56996;48.138;11.538;2023-02-16T04:20:27;13.20;;;6.30;;
69730;SDS011;56996;48.138;11.538;2023-02-16T04:22:56;17.10;;;7.40;;
69730;SDS011;56996;48.138;11.538;2023-02-16T04:25:24;20.80;;;8.30;;
69730;SDS011;56996;48.138;11.538;2023-02-16T04:27:51;18.70;;;8.00;;
69730;SDS011;56996;48.138;11.538;2023-02-16T04:30:20;16.90;;;7.30;;
69730;SDS011;56996;48.138;11.538;2023-02-16T04:32:48;16.60;;;8.20;;
69730;SDS011;56996;48.138;11.538;2023-02-16T04:35:16;19.40;;;7.80;;
69730;SDS011;56996;48.138;11.538;2023-02-16T04:37:43;21.40;;;8.40;;
69730;SDS011;56996;48.138;11.538;2023-02-16T04:40:11;17.50;;;8.10;;
69730;SDS011;56996;48.138;11.538;2023-02-16T04:42:40;19.10;;;8.10;;
69730;SDS011;56996;48.138;11.538;2023-02-16T04:45:07;16.60;;;8.10;;
69730;SDS011;56996;48.138;11.538;2023-02-16T04:47:35;18.80;;;8.00;;
69730;SDS011;56996;48.138;11.538;2023-02-16T04:50:02;14.90;;;6.90;;
69730;SDS011;56996;48.138;11.538;2023-02-16T04:52:29;15.20;;;5.90;;
69730;SDS011;56996;48.138;11.538;2023-02-16T04:54:56;12.20;;;5.50;;
69730;SDS011;56996;48.138;11.538;2023-02-16T04:57:23;13.00;;;5.60;;
69730;SDS011;56996;48.138;11.538;2023-02-16T04:59:50;11.00;;;4.80;;
69730;SDS011;56996;48.138;11.538;2023-02-16T05:02:16;11.90;;;5.20;;
69730;SDS011;56996;48.138;11.538;2023-02-16T05:04:43;11.60;;;5.20;;
69730;SDS011;56996;48.138;11.538;2023-02-16T05:07:10;14.40;;;5.70;;
69730;SDS011;56996;48.138;11.538;2023-02-16T05:09:36;12.30;;;5.20;;
69730;SDS011;56996;48.138;11.538;2023-02-16T05:12:03;11.20;;;4.80;;
69730;SDS011;56996;48.138;11.538;2023-02-16T05:14:48;13.50;;;5.50;;
69730;SDS011;56996;48.138;11.538;2023-02-16T05:17:20;13.00;;;5.50;;
69730;SDS011;56996;48.138;11.538;2023-02-16T05:19:51;11.70;;;5.30;;
69730;SDS011;56996;48.138;11.538;2023-02-16T05:22:23;10.00;;;3.90;;
69730;SDS011;56996;48.138;11.538;2023-02-16T05:24:50;10.80;;;4.40;;
69730;SDS011;56996;48.138;11.538;2023-02-16T05:27:23;12.00;;;4.80;;
69730;SDS011;56996;48.138;11.538;2023-02-16T05:29:50;10.90;;;4.70;;
69730;SDS011;56996;48.138;11.538;2023-02-16T05:32:18;10.70;;;4.60;;
69730;SDS011;56996;48.138;11.538;2023-02-16T05:34:45;11.00;;;4.60;;
69730;SDS011;56996;48.138;11.538;2023-02-16T05:37:14;13.00;;;4.90;;
69730;SDS011;56996;48.138;11.538;2023-02-16T05:39:43;10.90;;;4.30;;
69730;SDS011;56996;48.138;11.538;2023-02-16T05:42:10;11.00;;;4.80;;
69730;SDS011;56996;48.138;11.538;2023-02-16T05:44:37;12.70;;;4.50;;
69730;SDS011;56996;48.138;11.538;2023-02-16T05:47:04;11.20;;;4.30;;
69730;SDS011;56996;48.138;11.538;2023-02-16T05:49:30;9.90;;;3.40;;
69730;SDS011;56996;48.138;11.538;2023-02-16T05:51:57;10.00;;;2.90;;
69730;SDS011;56996;48.138;11.538;2023-02-16T05:54:24;10.30;;;3.20;;
69730;SDS011;56996;48.138;11.538;2023-02-16T05:56:51;10.00;;;3.40;;
69730;SDS011;56996;48.138;11.538;2023-02-16T05:59:18;7.70;;;2.70;;
69730;SDS011;56996;48.138;11.538;2023-02-16T06:01:45;8.10;;;2.70;;
69730;SDS011;56996;48.138;11.538;2023-02-16T06:04:16;12.40;;;3.40;;
69730;SDS011;56996;48.138;11.538;2023-02-16T06:06:44;9.40;;;3.60;;
69730;SDS011;56996;48.138;11.538;2023-02-16T06:09:11;9.80;;;3.60;;
69730;SDS011;56996;48.138;11.538;2023-02-16T06:11:37;9.30;;;3.50;;
69730;SDS011;56996;48.138;11.538;2023-02-16T06:14:15;36.20;;;6.10;;
69730;SDS011;56996;48.138;11.538;2023-02-16T06:16:46;21.00;;;4.70;;
69730;SDS011;56996;48.138;11.538;2023-02-16T06:19:16;25.80;;;5.90;;
69730;SDS011;56996;48.138;11.538;2023-02-16T06:21:44;18.50;;;4.10;;
69730;SDS011;56996;48.138;11.538;2023-02-16T06:24:12;11.70;;;4.00;;
69730;SDS011;56996;48.138;11.538;2023-02-16T06:26:39;12.60;;;4.20;;
69730;SDS011;56996;48.138;11.538;2023-02-16T06:29:08;14.10;;;4.30;;
69730;SDS011;56996;48.138;11.538;2023-02-16T06:31:35;13.90;;;4.50;;
69730;SDS011;56996;48.138;11.538;2023-02-16T06:34:03;10.70;;;3.80;;
69730;SDS011;56996;48.138;11.538;2023-02-16T06:36:33;13.40;;;4.30;;
69730;SDS011;56996;48.138;11.538;2023-02-16T06:39:00;12.80;;;3.80;;
69730;SDS011;56996;48.138;11.538;2023-02-16T06:41:26;11.80;;;3.80;;
69730;SDS011;56996;48.138;11.538;2023-02-16T06:44:22;13.70;;;3.90;;
69730;SDS011;56996;48.138;11.538;2023-02-16T06:46:48;23.60;;;11.20;;
69730;SDS011;56996;48.138;11.538;2023-02-16T06:49:18;15.70;;;5.50;;
69730;SDS011;56996;48.138;11.538;2023-02-16T06:51:47;11.50;;;3.90;;
69730;SDS011;56996;48.138;11.538;2023-02-16T06:54:15;12.70;;;4.40;;
69730;SDS011;56996;48.138;11.538;2023-02-16T06:56:42;13.10;;;4.30;;
69730;SDS011;56996;48.138;11.538;2023-02-16T06:59:10;11.50;;;4.20;;
69730;SDS011;56996;48.138;11.538;2023-02-16T07:01:37;10.30;;;3.50;;
69730;SDS011;56996;48.138;11.538;2023-02-16T07:04:04;8.90;;;3.10;;
69730;SDS011;56996;48.138;11.538;2023-02-16T07:06:30;8.40;;;2.90;;
69730;SDS011;56996;48.138;11.538;2023-02-16T07:08:58;13.60;;;5.80;;
69730;SDS011;56996;48.138;11.538;2023-02-16T07:11:24;13.00;;;4.00;;
69730;SDS011;56996;48.138;11.538;2023-02-16T07:13:51;8.80;;;3.70;;
69730;SDS011;56996;48.138;11.538;2023-02-16T07:16:18;10.80;;;3.50;;
69730;SDS011;56996;48.138;11.538;2023-02-16T07:18:45;12.10;;;3.50;;
69730;SDS011;56996;48.138;11.538;2023-02-16T07:21:13;9.10;;;3.50;;
69730;SDS011;56996;48.138;11.538;2023-02-16T07:23:40;9.80;;;4.10;;
69730;SDS011;56996;48.138;11.538;2023-02-16T07:26:07;9.20;;;3.70;;
69730;SDS011;56996;48.138;11.538;2023-02-16T07:28:34;11.00;;;4.00;;
69730;SDS011;56996;48.138;11.538;2023-02-16T07:31:09;9.30;;;3.70;;
69730;SDS011;56996;48.138;11.538;2023-02-16T07:33:37;12.30;;;4.20;;
69730;SDS011;56996;48.138;11.538;2023-02-16T07:36:05;11.20;;;4.70;;
69730;SDS011;56996;48.138;11.538;2023-02-16T07:38:33;13.20;;;4.80;;
69730;SDS011;56996;48.138;11.538;2023-02-16T07:41:00;12.60;;;4.90;;
69730;SDS011;56996;48.138;11.538;2023-02-16T07:43:28;9.80;;;4.20;;
69730;SDS011;56996;48.138;11.538;2023-02-16T07:45:55;10.90;;;4.10;;
69730;SDS011;56996;48.138;11.538;2023-02-16T07:48:22;13.10;;;4.70;;
69730;SDS011;56996;48.138;11.538;2023-02-16T07:50:49;10.70;;;4.50;;
69730;SDS011;56996;48.138;11.538;2023-02-16T07:53:15;10.80;;;4.50;;
69730;SDS011;56996;48.138;11.538;2023-02-16T07:55:43;12.20;;;4.60;;
69730;SDS011;56996;48.138;11.538;2023-02-16T07:58:12;31.20;;;16.60;;
69730;SDS011;56996;48.138;11.538;2023-02-16T08:01:05;13.30;;;5.40;;
69730;SDS011;56996;48.138;11.538;2023-02-16T08:03:34;15.60;;;7.00;;
69730;SDS011;56996;48.138;11.538;2023-02-16T08:06:01;15.00;;;6.50;;
69730;SDS011;56996;48.138;11.538;2023-02-16T08:08:29;15.00;;;6.20;;
69730;SDS011;56996;48.138;11.538;2023-02-16T08:10:57;17.40;;;5.70;;
69730;SDS011;56996;48.138;11.538;2023-02-16T08:13:24;14.30;;;5.40;;
69730;SDS011;56996;48.138;11.538;2023-02-16T08:15:51;17.70;;;7.50;;
69730;SDS011;56996;48.138;11.538;2023-02-16T08:18:17;17.40;;;7.90;;
69730;SDS011;56996;48.138;11.538;2023-02-16T08:20:44;24.30;;;12.80;;
69730;SDS011;56996;48.138;11.538;2023-02-16T08:23:28;13.90;;;5.20;;
69730;SDS011;56996;48.138;11.538;2023-02-16T08:25:55;19.30;;;5.90;;
69730;SDS011;56996;48.138;11.538;2023-02-16T08:28:24;14.90;;;6.10;;
69730;SDS011;56996;48.138;11.538;2023-02-16T08:30:54;12.40;;;4.90;;
69730;SDS011;56996;48.138;11.538;2023-02-16T08:33:21;15.70;;;5.90;;
69730;SDS011;56996;48.138;11.538;2023-02-16T08:35:48;18.60;;;6.80;;
69730;SDS011;56996;48.138;11.538;2023-02-16T08:38:15;15.90;;;5.70;;
69730;SDS011;56996;48.138;11.538;2023-02-16T08:40:47;13.20;;;5.30;;
69730;SDS011;56996;48.138;11.538;2023-02-16T08:43:14;12.90;;;4.90;;
69730;SDS011;56996;48.138;11.538;2023-02-16T08:45:45;16.70;;;5.20;;
69730;SDS011;56996;48.138;11.538;2023-02-16T08:48:13;15.40;;;5.30;;
69730;SDS011;56996;48.138;11.538;2023-02-16T08:50:45;11.90;;;5.00;;
69730;SDS011;56996;48.138;11.538;2023-02-16T08:53:20;12.10;;;4.70;;
69730;SDS011;56996;48.138;11.538;2023-02-16T08:58:18;14.00;;;4.80;;
69730;SDS011;56996;48.138;11.538;2023-02-16T09:00:45;14.20;;;5.00;;
69730;SDS011;56996;48.138;11.538;2023-02-16T09:03:12;14.50;;;5.00;;
69730;SDS011;56996;48.138;11.538;2023-02-16T09:05:39;12.80;;;4.40;;
69730;SDS011;56996;48.138;11.538;2023-02-16T09:08:05;14.20;;;4.70;;
69730;SDS011;56996;48.138;11.538;2023-02-16T09:10:32;12.40;;;4.20;;
69730;SDS011;56996;48.138;11.538;2023-02-16T09:12:58;12.70;;;4.40;;
69730;SDS011;56996;48.138;11.538;2023-02-16T09:15:25;15.20;;;5.20;;
69730;SDS011;56996;48.138;11.538;2023-02-16T09:17:52;11.50;;;4.20;;
69730;SDS011;56996;48.138;11.538;2023-02-16T09:20:18;13.10;;;4.70;;
69730;SDS011;56996;48.138;11.538;2023-02-16T09:22:46;12.10;;;4.30;;
69730;SDS011;56996;48.138;11.538;2023-02-16T09:25:13;11.20;;;4.50;;
69730;SDS011;56996;48.138;11.538;2023-02-16T09:27:41;13.80;;;4.90;;
69730;SDS011;56996;48.138;11.538;2023-02-16T09:30:08;12.70;;;4.70;;
69730;SDS011;56996;48.138;11.538;2023-02-16T09:32:36;20.00;;;8.60;;
69730;SDS011;56996;48.138;11.538;2023-02-16T09:35:02;14.00;;;5.00;;
69730;SDS011;56996;48.138;11.538;2023-02-16T09:37:31;16.80;;;5.60;;
69730;SDS011;56996;48.138;11.538;2023-02-16T09:39:58;15.90;;;5.80;;
69730;SDS011;56996;48.138;11.538;2023-02-16T09:42:33;12.70;;;5.00;;
69730;SDS011;56996;48.138;11.538;2023-02-16T09:45:13;13.50;;;4.90;;
69730;SDS011;56996;48.138;11.538;2023-02-16T09:47:45;16.30;;;6.80;;
69730;SDS011;56996;48.138;11.538;2023-02-16T09:53:07;14.00;;;7.60;;
69730;SDS011;56996;48.138;11.538;2023-02-16T09:55:53;14.40;;;5.90;;
69730;SDS011;56996;48.138;11.538;2023-02-16T09:58:29;12.90;;;6.00;;
69730;SDS011;56996;48.138;11.538;2023-02-16T10:01:13;12.70;;;6.20;;
69730;SDS011;56996;48.138;11.538;2023-02-16T10:04:04;13.40;;;6.30;;
69730;SDS011;56996;48.138;11.538;2023-02-16T10:06:52;10.40;;;5.30;;
69730;SDS011;56996;48.138;11.538;2023-02-16T10:09:27;14.00;;;6.30;;
69730;SDS011;56996;48.138;11.538;2023-02-16T10:12:15;12.30;;;5.50;;
69730;SDS011;56996;48.138;11.538;2023-02-16T10:14:51;13.00;;;6.40;;
69730;SDS011;56996;48.138;11.538;2023-02-16T10:17:43;14.40;;;5.90;;
69730;SDS011;56996;48.138;11.538;2023-02-16T10:20:14;14.20;;;6.90;;
69730;SDS011;56996;48.138;11.538;2023-02-16T10:26:04;13.10;;;5.70;;
69730;SDS011;56996;48.138;11.538;2023-02-16T10:29:09;16.10;;;6.60;;
69730;SDS011;56996;48.138;11.538;2023-02-16T10:34:20;12.10;;;5.80;;
69730;SDS011;56996;48.138;11.538;2023-02-16T10:37:18;16.80;;;6.50;;
69730;SDS011;56996;48.138;11.538;2023-02-16T10:40:09;13.80;;;5.90;;
69730;SDS011;56996;48.138;11.538;2023-02-16T10:43:17;12.10;;;6.40;;
69730;SDS011;56996;48.138;11.538;2023-02-16T10:45:55;12.20;;;7.00;;
69730;SDS011;56996;48.138;11.538;2023-02-16T10:48:24;12.30;;;5.80;;
69730;SDS011;56996;48.138;11.538;2023-02-16T10:51:05;12.50;;;6.10;;
69730;SDS011;56996;48.138;11.538;2023-02-16T10:53:48;12.30;;;6.10;;
69730;SDS011;56996;48.138;11.538;2023-02-16T10:59:24;24.00;;;13.10;;
69730;SDS011;56996;48.138;11.538;2023-02-16T11:01:58;12.20;;;5.70;;
69730;SDS011;56996;48.138;11.538;2023-02-16T11:07:05;10.50;;;4.50;;
69730;SDS011;56996;48.138;11.538;2023-02-16T11:09:34;9.50;;;4.20;;
69730;SDS011;56996;48.138;11.538;2023-02-16T11:12:29;13.10;;;5.20;;
69730;SDS011;56996;48.138;11.538;2023-02-16T11:15:19;13.20;;;5.30;;
69730;SDS011;56996;48.138;11.538;2023-02-16T11:17:49;11.80;;;5.40;;
69730;SDS011;56996;48.138;11.538;2023-02-16T11:23:56;14.90;;;5.40;;
69730;SDS011;56996;48.138;11.538;2023-02-16T11:28:44;12.00;;;5.10;;
69730;SDS011;56996;48.138;11.538;2023-02-16T11:31:37;11.70;;;5.50;;
69730;SDS011;56996;48.138;11.538;2023-02-16T11:34:30;11.60;;;4.80;;
69730;SDS011;56996;48.138;11.538;2023-02-16T11:37:12;9.60;;;4.60;;
69730;SDS011;56996;48.138;11.538;2023-02-16T11:39:48;13.60;;;4.90;;
69730;SDS011;56996;48.138;11.538;2023-02-16T11:42:44;11.00;;;4.40;;
69730;SDS011;56996;48.138;11.538;2023-02-16T11:45:30;11.60;;;4.80;;
69730;SDS011;56996;48.138;11.538;2023-02-16T11:48:06;12.20;;;5.20;;
69730;SDS011;56996;48.138;11.538;2023-02-16T11:50:39;12.50;;;5.10;;
69730;SDS011;56996;48.138;11.538;2023-02-16T11:53:27;12.10;;;5.00;;
69730;SDS011;56996;48.138;11.538;2023-02-16T11:59:10;11.80;;;4.20;;
69730;SDS011;56996;48.138;11.538;2023-02-16T12:05:23;9.90;;;3.60;;
69730;SDS011;56996;48.138;11.538;2023-02-16T12:08:23;8.10;;;2.60;;
69730;SDS011;56996;48.138;11.538;2023-02-16T12:11:20;7.50;;;2.80;;
69730;SDS011;56996;48.138;11.538;2023-02-16T12:16:45;10.20;;;2.90;;
69730;SDS011;56996;48.138;11.538;2023-02-16T12:19:23;10.30;;;3.70;;
69730;SDS011;56996;48.138;11.538;2023-02-16T12:22:22;8.90;;;3.20;;
69730;SDS011;56996;48.138;11.538;2023-02-16T12:25:18;9.40;;;2.60;;
69730;SDS011;56996;48.138;11.538;2023-02-16T12:28:25;7.90;;;2.20;;
69730;SDS011;56996;48.138;11.538;2023-02-16T12:33:58;10.10;;;3.30;;
69730;SDS011;56996;48.138;11.538;2023-02-16T12:45:03;8.50;;;3.30;;
69730;SDS011;56996;48.138;11.538;2023-02-16T12:47:40;10.70;;;3.90;;
69730;SDS011;56996;48.138;11.538;2023-02-16T12:50:19;9.30;;;3.10;;
69730;SDS011;56996;48.138;11.538;2023-02-16T12:52:55;10.20;;;2.90;;
69730;SDS011;56996;48.138;11.538;2023-02-16T12:55:37;10.20;;;3.80;;
69730;SDS011;56996;48.138;11.538;2023-02-16T13:00:38;10.60;;;3.50;;
69730;SDS011;56996;48.138;11.538;2023-02-16T13:09:40;9.40;;;3.60;;
69730;SDS011;56996;48.138;11.538;2023-02-16T13:15:00;9.40;;;3.20;;
69730;SDS011;56996;48.138;11.538;2023-02-16T13:17:33;10.30;;;2.80;;
69730;SDS011;56996;48.138;11.538;2023-02-16T13:20:02;8.00;;;3.00;;
69730;SDS011;56996;48.138;11.538;2023-02-16T13:22:44;9.20;;;3.20;;
69730;SDS011;56996;48.138;11.538;2023-02-16T13:37:23;10.10;;;3.30;;
69730;SDS011;56996;48.138;11.538;2023-02-16T13:45:40;10.60;;;3.50;;
69730;SDS011;56996;48.138;11.538;2023-02-16T13:48:38;8.80;;;3.30;;
69730;SDS011;56996;48.138;11.538;2023-02-16T13:51:17;9.80;;;3.30;;
69730;SDS011;56996;48.138;11.538;2023-02-16T13:53:58;10.30;;;3.20;;
69730;SDS011;56996;48.138;11.538;2023-02-16T13:58:55;8.90;;;3.40;;
69730;SDS011;56996;48.138;11.538;2023-02-16T14:01:34;10.60;;;3.70;;
69730;SDS011;56996;48.138;11.538;2023-02-16T14:10:12;7.00;;;2.20;;
69730;SDS011;56996;48.138;11.538;2023-02-16T14:12:39;9.70;;;3.50;;
69730;SDS011;56996;48.138;11.538;2023-02-16T14:15:17;8.90;;;3.60;;
69730;SDS011;56996;48.138;11.538;2023-02-16T14:17:45;10.00;;;3.80;;
69730;SDS011;56996;48.138;11.538;2023-02-16T14:27:57;10.50;;;4.90;;
69730;SDS011;56996;48.138;11.538;2023-02-16T14:30:51;9.10;;;2.80;;
69730;SDS011;56996;48.138;11.538;2023-02-16T14:36:16;10.00;;;2.80;;
69730;SDS011;56996;48.138;11.538;2023-02-16T14:38:49;8.70;;;2.90;;
69730;SDS011;56996;48.138;11.538;2023-02-16T14:41:33;9.10;;;2.80;;
69730;SDS011;56996;48.138;11.538;2023-02-16T14:47:10;6.90;;;2.50;;
69730;SDS011;56996;48.138;11.538;2023-02-16T14:59:16;10.60;;;3.30;;
69730;SDS011;56996;48.138;11.538;2023-02-16T15:02:23;7.80;;;2.30;;
69730;SDS011;56996;48.138;11.538;2023-02-16T15:04:52;7.70;;;2.40;;
69730;SDS011;56996;48.138;11.538;2023-02-16T15:07:20;8.50;;;2.70;;
69730;SDS011;56996;48.138;11.538;2023-02-16T15:09:53;11.20;;;3.00;;
69730;SDS011;56996;48.138;11.538;2023-02-16T15:12:37;8.00;;;2.80;;
69730;SDS011;56996;48.138;11.538;2023-02-16T15:15:06;8.30;;;2.70;;
69730;SDS011;56996;48.138;11.538;2023-02-16T15:17:43;8.00;;;2.60;;
69730;SDS011;56996;48.138;11.538;2023-02-16T15:20:30;9.00;;;2.40;;
69730;SDS011;56996;48.138;11.538;2023-02-16T15:23:20;8.40;;;2.70;;
69730;SDS011;56996;48.138;11.538;2023-02-16T15:25:54;10.30;;;2.80;;
69730;SDS011;56996;48.138;11.538;2023-02-16T15:28:33;9.30;;;2.50;;
69730;SDS011;56996;48.138;11.538;2023-02-16T15:31:06;9.00;;;3.20;;
69730;SDS011;56996;48.138;11.538;2023-02-16T15:33:40;9.10;;;3.00;;
69730;SDS011;56996;48.138;11.538;2023-02-16T15:36:11;7.50;;;2.50;;
69730;SDS011;56996;48.138;11.538;2023-02-16T15:38:42;9.80;;;3.00;;
69730;SDS011;56996;48.138;11.538;2023-02-16T15:41:29;8.00;;;2.50;;
69730;SDS011;56996;48.138;11.538;2023-02-16T15:43:58;9.40;;;2.90;;
69730;SDS011;56996;48.138;11.538;2023-02-16T15:46:37;8.90;;;2.40;;
69730;SDS011;56996;48.138;11.538;2023-02-16T15:49:20;7.80;;;2.80;;
69730;SDS011;56996;48.138;11.538;2023-02-16T15:51:53;9.40;;;2.90;;
69730;SDS011;56996;48.138;11.538;2023-02-16T15:54:32;8.00;;;2.60;;
69730;SDS011;56996;48.138;11.538;2023-02-16T15:57:04;9.00;;;2.80;;
69730;SDS011;56996;48.138;11.538;2023-02-16T15:59:53;8.10;;;2.90;;
69730;SDS011;56996;48.138;11.538;2023-02-16T16:02:32;10.30;;;3.10;;
69730;SDS011;56996;48.138;11.538;2023-02-16T16:05:05;8.50;;;3.40;;
69730;SDS011;56996;48.138;11.538;2023-02-16T16:07:36;11.10;;;2.80;;
69730;SDS011;56996;48.138;11.538;2023-02-16T16:10:15;8.40;;;2.80;;
69730;SDS011;56996;48.138;11.538;2023-02-16T16:12:46;8.40;;;2.70;;
69730;SDS011;56996;48.138;11.538;2023-02-16T16:15:19;11.70;;;3.40;;
69730;SDS011;56996;48.138;11.538;2023-02-16T16:17:50;10.40;;;3.10;;
69730;SDS011;56996;48.138;11.538;2023-02-16T16:20:36;10.80;;;3.60;;
69730;SDS011;56996;48.138;11.538;2023-02-16T16:25:44;10.60;;;3.30;;
69730;SDS011;56996;48.138;11.538;2023-02-16T16:28:34;11.00;;;4.00;;
69730;SDS011;56996;48.138;11.538;2023-02-16T16:31:29;12.20;;;4.10;;
69730;SDS011;56996;48.138;11.538;2023-02-16T16:34:04;10.80;;;3.00;;
69730;SDS011;56996;48.138;11.538;2023-02-16T16:36:42;10.80;;;3.70;;
69730;SDS011;56996;48.138;11.538;2023-02-16T16:39:23;9.70;;;3.30;;
69730;SDS011;56996;48.138;11.538;2023-02-16T16:44:37;12.00;;;3.50;;
69730;SDS011;56996;48.138;11.538;2023-02-16T16:47:26;11.30;;;3.20;;
69730;SDS011;56996;48.138;11.538;2023-02-16T16:50:27;13.40;;;3.50;;
69730;SDS011;56996;48.138;11.538;2023-02-16T16:52:54;14.50;;;4.30;;
69730;SDS011;56996;48.138;11.538;2023-02-16T16:55:25;11.10;;;4.20;;
69730;SDS011;56996;48.138;11.538;2023-02-16T16:58:05;12.10;;;3.70;;
69730;SDS011;56996;48.138;11.538;2023-02-16T17:00:37;10.30;;;3.50;;
69730;SDS011;56996;48.138;11.538;2023-02-16T17:03:08;8.50;;;3.00;;
69730;SDS011;56996;48.138;11.538;2023-02-16T17:05:40;11.10;;;3.00;;
69730;SDS011;56996;48.138;11.538;2023-02-16T17:08:07;13.00;;;3.80;;
69730;SDS011;56996;48.138;11.538;2023-02-16T17:10:36;11.00;;;3.70;;
69730;SDS011;56996;48.138;11.538;2023-02-16T17:13:04;13.00;;;3.40;;
69730;SDS011;56996;48.138;11.538;2023-02-16T17:15:47;14.60;;;3.80;;
69730;SDS011;56996;48.138;11.538;2023-02-16T17:18:20;8.30;;;3.00;;
69730;SDS011;56996;48.138;11.538;2023-02-16T17:20:49;11.50;;;3.40;;
69730;SDS011;56996;48.138;11.538;2023-02-16T17:23:18;11.30;;;2.90;;
69730;SDS011;56996;48.138;11.538;2023-02-16T17:25:46;8.30;;;2.90;;
69730;SDS011;56996;48.138;11.538;2023-02-16T17:28:14;10.90;;;3.40;;